Time,TemperatureF,DewpointF,PressureIn,WindDirection,WindDirectionDegrees,WindSpeedMPH,WindSpeedGustMPH,Humidity,HourlyPrecipIn,Conditions,Clouds,dailyrainin,SoftwareType,DateUTC
2013-03-15 00:01:00,49.9,45.6,30.12,SW,220,0.0,0.0,85,0.00,,,0.00,WeatherCatV1.14B232,2013-03-15 07:01:00,
2013-03-15 00:06:00,50.1,45.8,30.13,SW,220,0.0,0.0,85,0.00,,,0.00,WeatherCatV1.14B232,2013-03-15 07:06:00,
2013-03-15 00:11:00,50.0,45.7,30.13,WSW,240,1.0,2.0,85,0.00,,,0.00,WeatherCatV1.14B232,2013-03-15 07:11:00,
2013-03-15 00:16:00,49.9,45.9,30.13,WSW,246,2.0,3.0,86,0.00,,,0.00,WeatherCatV1.14B232,2013-03-15 07:16:00,
2013-03-15 00:21:00,49.7,45.7,30.13,SW,224,0.0,1.0,86,0.00,,,0.00,WeatherCatV1.14B232,2013-03-15 07:21:00,
2013-03-15 00:26:00,50.1,45.8,30.13,WSW,242,1.0,1.0,85,0.00,,,0.00,WeatherCatV1.14B232,2013-03-15 07:26:00,
2013-03-15 00:31:00,50.5,45.8,30.13,WSW,243,2.0,3.0,84,0.00,,,0.00,WeatherCatV1.14B232,2013-03-15 07:31:00,
2013-03-15 00:36:00,50.8,45.8,30.13,WSW,243,3.0,5.0,83,0.00,,,0.00,WeatherCatV1.14B232,2013-03-15 07:36:00,
2013-03-15 00:41:00,51.8,45.5,30.13,WSW,243,2.0,3.0,79,0.00,,,0.00,WeatherCatV1.14B232,2013-03-15 07:41:00,
2013-03-15 00:47:00,52.6,45.3,30.13,WSW,249,2.0,3.0,76,0.00,,,0.00,WeatherCatV1.14B232,2013-03-15 07:47:00,
2013-03-15 00:52:00,53.0,45.3,30.12,SW,231,1.0,2.0,75,0.00,,,0.00,WeatherCatV1.14B232,2013-03-15 07:52:00,
2013-03-15 00:57:00,53.3,45.6,30.12,SSW,211,1.0,2.0,75,0.00,,,0.00,WeatherCatV1.14B232,2013-03-15 07:57:00,
2013-03-15 01:02:00,53.5,45.1,30.12,SSW,213,0.0,0.0,73,0.00,,,0.00,WeatherCatV1.14B232,2013-03-15 08:02:00,
2013-03-15 01:07:00,53.7,44.9,30.12,SW,226,0.0,0.0,72,0.00,,,0.00,WeatherCatV1.14B232,2013-03-15 08:07:00,
2013-03-15 01:12:00,53.7,44.9,30.12,SW,226,0.0,0.0,72,0.00,,,0.00,WeatherCatV1.14B232,2013-03-15 08:12:00,
2013-03-15 01:17:00,53.5,44.7,30.12,SW,228,0.0,0.0,72,0.00,,,0.00,WeatherCatV1.14B232,2013-03-15 08:17:00,
2013-03-15 01:22:00,53.4,45.0,30.13,SW,228,0.0,0.0,73,0.00,,,0.00,WeatherCatV1.14B232,2013-03-15 08:22:00,
2013-03-15 01:27:00,53.4,45.0,30.13,SW,231,0.0,0.0,73,0.00,,,0.00,WeatherCatV1.14B232,2013-03-15 08:27:00,
2013-03-15 01:32:00,52.9,44.8,30.13,SW,231,0.0,0.0,74,0.00,,,0.00,WeatherCatV1.14B232,2013-03-15 08:32:00,
2013-03-15 01:37:00,52.3,44.6,30.14,SW,231,0.0,0.0,75,0.00,,,0.00,WeatherCatV1.14B232,2013-03-15 08:37:00,
2013-03-15 01:42:00,52.3,45.0,30.13,SW,231,0.0,0.0,76,0.00,,,0.00,WeatherCatV1.14B232,2013-03-15 08:42:00,
2013-03-15 01:47:00,52.6,44.9,30.13,SW,231,0.0,0.0,75,0.00,,,0.00,WeatherCatV1.14B232,2013-03-15 08:47:00,
2013-03-15 01:52:00,52.5,45.2,30.12,WSW,250,0.0,1.0,76,0.00,,,0.00,WeatherCatV1.14B232,2013-03-15 08:52:00,
2013-03-15 01:57:00,51.8,45.2,30.12,WSW,250,0.0,1.0,78,0.00,,,0.00,WeatherCatV1.14B232,2013-03-15 08:57:00,
2013-03-15 02:02:00,51.4,45.4,30.13,South,186,0.0,2.0,80,0.00,,,0.00,WeatherCatV1.14B232,2013-03-15 09:02:00,
2013-03-15 02:07:00,50.8,45.2,30.13,SE,129,0.0,0.0,81,0.00,,,0.00,WeatherCatV1.14B232,2013-03-15 09:07:00,
2013-03-15 02:12:00,50.5,44.9,30.12,SE,142,0.0,1.0,81,0.00,,,0.00,WeatherCatV1.14B232,2013-03-15 09:12:00,
2013-03-15 02:17:00,50.5,45.2,30.12,SE,142,0.0,0.0,82,0.00,,,0.00,WeatherCatV1.14B232,2013-03-15 09:17:00,
2013-03-15 02:22:00,50.2,44.9,30.12,SE,142,0.0,0.0,82,0.00,,,0.00,WeatherCatV1.14B232,2013-03-15 09:22:00,
2013-03-15 02:27:00,50.5,44.6,30.12,SE,142,0.0,0.0,80,0.00,,,0.00,WeatherCatV1.14B232,2013-03-15 09:27:00,
2013-03-15 02:32:00,50.8,44.5,30.12,SE,142,0.0,0.0,79,0.00,,,0.00,WeatherCatV1.14B232,2013-03-15 09:32:00,
2013-03-15 02:37:00,51.1,44.5,30.12,SE,125,0.0,0.0,78,0.00,,,0.00,WeatherCatV1.14B232,2013-03-15 09:37:00,
2013-03-15 02:42:00,51.4,45.1,30.11,ENE,65,0.0,0.0,79,0.00,,,0.00,WeatherCatV1.14B232,2013-03-15 09:42:00,
2013-03-15 02:47:00,51.3,45.0,30.11,ENE,65,0.0,0.0,79,0.00,,,0.00,WeatherCatV1.14B232,2013-03-15 09:47:00,
2013-03-15 02:52:00,50.8,44.5,30.11,ENE,65,0.0,0.0,79,0.00,,,0.00,WeatherCatV1.14B232,2013-03-15 09:52:00,
2013-03-15 02:57:00,50.9,45.0,30.11,ENE,65,0.0,0.0,80,0.00,,,0.00,WeatherCatV1.14B232,2013-03-15 09:57:00,
2013-03-15 03:02:00,50.9,45.0,30.11,ENE,65,0.0,0.0,80,0.00,,,0.00,WeatherCatV1.14B232,2013-03-15 10:02:00,
2013-03-15 03:07:00,50.8,44.9,30.11,ENE,65,0.0,0.0,80,0.00,,,0.00,WeatherCatV1.14B232,2013-03-15 10:07:00,
2013-03-15 03:12:00,50.5,44.6,30.11,ENE,65,0.0,0.0,80,0.00,,,0.00,WeatherCatV1.14B232,2013-03-15 10:12:00,
2013-03-15 03:17:00,50.3,44.4,30.11,ENE,65,0.0,0.0,80,0.00,,,0.00,WeatherCatV1.14B232,2013-03-15 10:17:00,
2013-03-15 03:22:00,50.5,43.9,30.12,ENE,65,0.0,0.0,78,0.00,,,0.00,WeatherCatV1.14B232,2013-03-15 10:22:00,
2013-03-15 03:27:00,51.2,44.2,30.12,ENE,65,0.0,0.0,77,0.00,,,0.00,WeatherCatV1.14B232,2013-03-15 10:27:00,
2013-03-15 03:32:00,51.6,43.9,30.12,ENE,65,0.0,0.0,75,0.00,,,0.00,WeatherCatV1.14B232,2013-03-15 10:32:00,
2013-03-15 03:37:00,51.1,44.8,30.12,West,276,0.0,0.0,79,0.00,,,0.00,WeatherCatV1.14B232,2013-03-15 10:37:00,
2013-03-15 03:42:00,50.4,44.5,30.12,West,266,0.0,0.0,80,0.00,,,0.00,WeatherCatV1.14B232,2013-03-15 10:42:00,
2013-03-15 03:47:00,49.7,44.7,30.12,West,266,0.0,0.0,83,0.00,,,0.00,WeatherCatV1.14B232,2013-03-15 10:47:00,
2013-03-15 03:52:00,49.2,44.6,30.11,West,266,0.0,0.0,84,0.00,,,0.00,WeatherCatV1.14B232,2013-03-15 10:52:00,
2013-03-15 03:57:00,49.1,44.8,30.11,West,266,0.0,0.0,85,0.00,,,0.00,WeatherCatV1.14B232,2013-03-15 10:57:00,
2013-03-15 04:02:00,49.1,44.8,30.11,West,266,0.0,0.0,85,0.00,,,0.00,WeatherCatV1.14B232,2013-03-15 11:02:00,
2013-03-15 04:07:00,49.2,44.6,30.11,West,266,0.0,0.0,84,0.00,,,0.00,WeatherCatV1.14B232,2013-03-15 11:07:00,
2013-03-15 04:12:00,49.3,44.7,30.11,West,267,0.0,0.0,84,0.00,,,0.00,WeatherCatV1.14B232,2013-03-15 11:12:00,
2013-03-15 04:17:00,49.2,44.6,30.11,West,267,0.0,0.0,84,0.00,,,0.00,WeatherCatV1.14B232,2013-03-15 11:17:00,
2013-03-15 04:22:00,49.1,44.5,30.11,West,269,0.0,0.0,84,0.00,,,0.00,WeatherCatV1.14B232,2013-03-15 11:22:00,
2013-03-15 04:27:00,48.9,44.6,30.11,West,273,0.0,0.0,85,0.00,,,0.00,WeatherCatV1.14B232,2013-03-15 11:27:00,
2013-03-15 04:32:00,49.0,44.7,30.11,West,273,0.0,0.0,85,0.00,,,0.00,WeatherCatV1.14B232,2013-03-15 11:32:00,
2013-03-15 04:37:00,48.9,44.6,30.11,West,281,0.0,0.0,85,0.00,,,0.00,WeatherCatV1.14B232,2013-03-15 11:37:00,
2013-03-15 04:42:00,48.8,44.5,30.11,West,281,0.0,0.0,85,0.00,,,0.00,WeatherCatV1.14B232,2013-03-15 11:42:00,
2013-03-15 04:47:00,48.9,44.6,30.11,NNE,25,0.0,0.0,85,0.00,,,0.00,WeatherCatV1.14B232,2013-03-15 11:47:00,
2013-03-15 04:52:00,49.1,44.5,30.11,NNE,25,0.0,0.0,84,0.00,,,0.00,WeatherCatV1.14B232,2013-03-15 11:52:00,
2013-03-15 04:57:00,49.2,44.6,30.10,NNE,25,0.0,0.0,84,0.00,,,0.00,WeatherCatV1.14B232,2013-03-15 11:57:00,
2013-03-15 05:02:00,49.3,44.4,30.11,NNE,25,0.0,0.0,83,0.00,,,0.00,WeatherCatV1.14B232,2013-03-15 12:02:00,
2013-03-15 05:07:00,49.3,44.4,30.11,NNE,25,0.0,0.0,83,0.00,,,0.00,WeatherCatV1.14B232,2013-03-15 12:07:00,
2013-03-15 05:12:00,49.1,44.2,30.11,NNE,25,0.0,0.0,83,0.00,,,0.00,WeatherCatV1.14B232,2013-03-15 12:12:00,
2013-03-15 05:17:00,49.1,44.2,30.11,NNE,25,0.0,0.0,83,0.00,,,0.00,WeatherCatV1.14B232,2013-03-15 12:17:00,
2013-03-15 05:22:00,49.4,44.5,30.11,WSW,256,0.0,0.0,83,0.00,,,0.00,WeatherCatV1.14B232,2013-03-15 12:22:00,
2013-03-15 05:27:00,49.4,44.8,30.11,WSW,255,0.0,1.0,84,0.00,,,0.00,WeatherCatV1.14B232,2013-03-15 12:27:00,
2013-03-15 05:32:00,49.3,45.0,30.11,WSW,249,0.0,0.0,85,0.00,,,0.00,WeatherCatV1.14B232,2013-03-15 12:32:00,
2013-03-15 05:37:00,49.3,45.3,30.11,WSW,253,0.0,0.0,86,0.00,,,0.00,WeatherCatV1.14B232,2013-03-15 12:37:00,
2013-03-15 05:42:00,49.2,45.2,30.10,WSW,253,0.0,0.0,86,0.00,,,0.00,WeatherCatV1.14B232,2013-03-15 12:42:00,
2013-03-15 05:47:00,49.1,45.1,30.10,SW,222,0.0,0.0,86,0.00,,,0.00,WeatherCatV1.14B232,2013-03-15 12:47:00,
2013-03-15 05:52:00,49.0,45.0,30.10,SW,218,0.0,0.0,86,0.00,,,0.00,WeatherCatV1.14B232,2013-03-15 12:52:00,
2013-03-15 05:57:00,49.0,45.0,30.10,SW,220,0.0,0.0,86,0.00,,,0.00,WeatherCatV1.14B232,2013-03-15 12:57:00,
2013-03-15 06:02:00,49.4,45.4,30.10,SW,221,0.0,0.0,86,0.00,,,0.00,WeatherCatV1.14B232,2013-03-15 13:02:00,
2013-03-15 06:07:00,49.3,45.0,30.10,West,259,0.0,0.0,85,0.00,,,0.00,WeatherCatV1.14B232,2013-03-15 13:07:00,
2013-03-15 06:12:00,49.1,45.1,30.11,WSW,246,3.0,3.0,86,0.00,,,0.00,WeatherCatV1.14B232,2013-03-15 13:12:00,
2013-03-15 06:17:00,48.8,45.1,30.11,WSW,245,3.0,4.0,87,0.00,,,0.00,WeatherCatV1.14B232,2013-03-15 13:17:00,
2013-03-15 06:22:00,48.2,44.5,30.11,WSW,252,0.0,0.0,87,0.00,,,0.00,WeatherCatV1.14B232,2013-03-15 13:22:00,
2013-03-15 06:27:00,48.3,44.9,30.11,WSW,249,0.0,0.0,88,0.00,,,0.00,WeatherCatV1.14B232,2013-03-15 13:27:00,
2013-03-15 06:32:00,48.7,45.6,30.11,WSW,249,0.0,0.0,89,0.00,,,0.00,WeatherCatV1.14B232,2013-03-15 13:32:00,
2013-03-15 06:37:00,49.1,46.0,30.11,WSW,246,0.0,0.0,89,0.00,,,0.00,WeatherCatV1.14B232,2013-03-15 13:37:00,
2013-03-15 06:42:00,49.4,46.0,30.11,WSW,252,0.0,0.0,88,0.00,,,0.00,WeatherCatV1.14B232,2013-03-15 13:42:00,
2013-03-15 06:47:00,49.6,46.2,30.11,WSW,253,0.0,2.0,88,0.00,,,0.00,WeatherCatV1.14B232,2013-03-15 13:47:00,
2013-03-15 06:52:00,49.6,45.9,30.11,WSW,240,0.0,3.0,87,0.00,,,0.00,WeatherCatV1.14B232,2013-03-15 13:52:00,
2013-03-15 06:57:00,49.6,45.6,30.11,WSW,240,0.0,0.0,86,0.00,,,0.00,WeatherCatV1.14B232,2013-03-15 13:57:00,
2013-03-15 07:02:00,49.4,45.1,30.11,WSW,240,0.0,0.0,85,0.00,,,0.00,WeatherCatV1.14B232,2013-03-15 14:02:00,
2013-03-15 07:07:00,49.3,45.0,30.11,WSW,240,0.0,0.0,85,0.00,,,0.00,WeatherCatV1.14B232,2013-03-15 14:07:00,
2013-03-15 07:12:00,49.1,44.8,30.11,WSW,240,0.0,0.0,85,0.00,,,0.00,WeatherCatV1.14B232,2013-03-15 14:12:00,
2013-03-15 07:17:00,49.0,44.7,30.11,WSW,240,0.0,0.0,85,0.00,,,0.00,WeatherCatV1.14B232,2013-03-15 14:17:00,
2013-03-15 07:22:00,49.4,45.1,30.11,NNE,12,0.0,0.0,85,0.00,,,0.00,WeatherCatV1.14B232,2013-03-15 14:22:00,
2013-03-15 07:27:00,49.6,45.0,30.12,NNE,12,0.0,0.0,84,0.00,,,0.00,WeatherCatV1.14B232,2013-03-15 14:27:00,
2013-03-15 07:32:00,49.5,44.6,30.11,NNE,12,0.0,0.0,83,0.00,,,0.00,WeatherCatV1.14B232,2013-03-15 14:32:00,
2013-03-15 07:37:00,50.0,45.4,30.11,NNE,25,0.0,0.0,84,0.00,,,0.00,WeatherCatV1.14B232,2013-03-15 14:37:00,
2013-03-15 07:42:00,50.1,45.5,30.11,NNE,30,0.0,0.0,84,0.00,,,0.00,WeatherCatV1.14B232,2013-03-15 14:42:00,
2013-03-15 07:47:00,50.0,45.4,30.10,NNE,30,0.0,0.0,84,0.00,,,0.00,WeatherCatV1.14B232,2013-03-15 14:47:00,
2013-03-15 07:52:00,50.2,45.2,30.11,NNE,30,0.0,0.0,83,0.00,,,0.00,WeatherCatV1.14B232,2013-03-15 14:52:00,
2013-03-15 07:57:00,50.3,45.0,30.11,NNE,30,0.0,0.0,82,0.00,,,0.00,WeatherCatV1.14B232,2013-03-15 14:57:00,
2013-03-15 08:02:00,50.5,45.2,30.11,NNE,30,0.0,0.0,82,0.00,,,0.00,WeatherCatV1.14B232,2013-03-15 15:02:00,
2013-03-15 08:07:00,50.3,45.3,30.11,WSW,256,0.0,1.0,83,0.00,,,0.00,WeatherCatV1.14B232,2013-03-15 15:07:00,
2013-03-15 08:12:00,50.3,45.0,30.11,WSW,256,0.0,0.0,82,0.00,,,0.00,WeatherCatV1.14B232,2013-03-15 15:12:00,
2013-03-15 08:17:00,50.6,45.6,30.11,WSW,257,0.0,0.0,83,0.00,,,0.00,WeatherCatV1.14B232,2013-03-15 15:17:00,
2013-03-15 08:22:00,50.7,45.7,30.10,WSW,256,0.0,0.0,83,0.00,,,0.00,WeatherCatV1.14B232,2013-03-15 15:22:00,
2013-03-15 08:27:00,50.9,45.9,30.11,WSW,252,0.0,0.0,83,0.00,,,0.00,WeatherCatV1.14B232,2013-03-15 15:27:00,
2013-03-15 08:32:00,50.7,46.0,30.11,WSW,252,0.0,0.0,84,0.00,,,0.00,WeatherCatV1.14B232,2013-03-15 15:32:00,
2013-03-15 08:37:00,50.7,46.0,30.11,WSW,252,0.0,0.0,84,0.00,,,0.00,WeatherCatV1.14B232,2013-03-15 15:37:00,
2013-03-15 08:42:00,50.9,46.2,30.12,WSW,249,0.0,0.0,84,0.00,,,0.00,WeatherCatV1.14B232,2013-03-15 15:42:00,
2013-03-15 08:47:00,50.9,46.6,30.12,WSW,244,0.0,0.0,85,0.00,,,0.00,WeatherCatV1.14B232,2013-03-15 15:47:00,
2013-03-15 08:52:00,50.9,46.6,30.11,WSW,243,0.0,0.0,85,0.00,,,0.00,WeatherCatV1.14B232,2013-03-15 15:52:00,
2013-03-15 08:57:00,51.1,46.4,30.12,WSW,244,0.0,0.0,84,0.00,,,0.00,WeatherCatV1.14B232,2013-03-15 15:57:00,
2013-03-15 09:02:00,51.6,47.2,30.12,WSW,237,0.0,0.0,85,0.00,,,0.00,WeatherCatV1.14B232,2013-03-15 16:02:00,
2013-03-15 09:07:00,51.9,47.2,30.12,SSW,193,0.0,0.0,84,0.00,,,0.00,WeatherCatV1.14B232,2013-03-15 16:07:00,
2013-03-15 09:12:00,51.9,46.9,30.12,SSW,200,0.0,0.0,83,0.00,,,0.00,WeatherCatV1.14B232,2013-03-15 16:12:00,
2013-03-15 09:17:00,52.1,46.8,30.13,SSW,200,0.0,0.0,82,0.00,,,0.00,WeatherCatV1.14B232,2013-03-15 16:17:00,
2013-03-15 09:22:00,52.4,47.1,30.12,West,259,2.0,2.0,82,0.00,,,0.00,WeatherCatV1.14B232,2013-03-15 16:22:00,
2013-03-15 09:27:00,52.4,46.7,30.12,West,266,2.0,2.0,81,0.00,,,0.00,WeatherCatV1.14B232,2013-03-15 16:27:00,
2013-03-15 09:32:00,52.6,47.3,30.12,WSW,240,2.0,3.0,82,0.00,,,0.00,WeatherCatV1.14B232,2013-03-15 16:32:00,
2013-03-15 09:37:00,52.9,47.6,30.12,WSW,240,1.0,2.0,82,0.00,,,0.00,WeatherCatV1.14B232,2013-03-15 16:37:00,
2013-03-15 09:42:00,53.1,48.1,30.13,West,260,1.0,2.0,83,0.00,,,0.00,WeatherCatV1.14B232,2013-03-15 16:42:00,
2013-03-15 09:47:00,53.2,47.8,30.13,SW,236,3.0,3.0,82,0.00,,,0.00,WeatherCatV1.14B232,2013-03-15 16:47:00,
2013-03-15 09:52:00,53.2,47.8,30.14,SW,233,1.0,1.0,82,0.00,,,0.00,WeatherCatV1.14B232,2013-03-15 16:52:00,
2013-03-15 09:57:00,53.3,47.9,30.14,WSW,239,0.0,2.0,82,0.00,,,0.00,WeatherCatV1.14B232,2013-03-15 16:57:00,
2013-03-15 10:02:00,53.2,48.2,30.14,West,264,1.0,2.0,83,0.00,,,0.00,WeatherCatV1.14B232,2013-03-15 17:02:00,
2013-03-15 10:07:00,53.3,48.3,30.14,WSW,253,0.0,0.0,83,0.00,,,0.00,WeatherCatV1.14B232,2013-03-15 17:07:00,
2013-03-15 10:12:00,53.6,48.6,30.13,WSW,253,0.0,0.0,83,0.00,,,0.00,WeatherCatV1.14B232,2013-03-15 17:12:00,
2013-03-15 10:17:00,54.2,49.1,30.13,WSW,253,0.0,0.0,83,0.00,,,0.00,WeatherCatV1.14B232,2013-03-15 17:17:00,
2013-03-15 10:22:00,54.7,49.6,30.14,WSW,253,0.0,0.0,83,0.00,,,0.00,WeatherCatV1.14B232,2013-03-15 17:22:00,
2013-03-15 10:27:00,55.1,49.7,30.14,WSW,253,2.0,2.0,82,0.00,,,0.00,WeatherCatV1.14B232,2013-03-15 17:27:00,
2013-03-15 10:32:00,55.9,50.2,30.13,WNW,284,0.0,1.0,81,0.00,,,0.00,WeatherCatV1.14B232,2013-03-15 17:32:00,
2013-03-15 10:37:00,56.4,50.3,30.13,NNE,12,0.0,0.0,80,0.00,,,0.00,WeatherCatV1.14B232,2013-03-15 17:37:00,
2013-03-15 10:42:00,56.8,50.7,30.13,North,11,0.0,0.0,80,0.00,,,0.00,WeatherCatV1.14B232,2013-03-15 17:42:00,
2013-03-15 10:47:00,57.7,50.9,30.13,WSW,243,0.0,0.0,78,0.00,,,0.00,WeatherCatV1.14B232,2013-03-15 17:47:00,
2013-03-15 10:52:00,58.3,51.1,30.13,WSW,253,0.0,0.0,77,0.00,,,0.00,WeatherCatV1.14B232,2013-03-15 17:52:00,
2013-03-15 10:57:00,58.6,51.1,30.13,WSW,240,1.0,3.0,76,0.00,,,0.00,WeatherCatV1.14B232,2013-03-15 17:57:00,
2013-03-15 11:02:00,58.6,51.1,30.13,SW,236,0.0,1.0,76,0.00,,,0.00,WeatherCatV1.14B232,2013-03-15 18:02:00,
2013-03-15 11:07:00,59.1,51.5,30.13,SW,236,0.0,0.0,76,0.00,,,0.00,WeatherCatV1.14B232,2013-03-15 18:07:00,
2013-03-15 11:12:00,59.1,50.8,30.13,West,262,0.0,3.0,74,0.00,,,0.00,WeatherCatV1.14B232,2013-03-15 18:12:00,
2013-03-15 11:17:00,58.7,50.1,30.13,SW,218,3.0,3.0,73,0.00,,,0.00,WeatherCatV1.14B232,2013-03-15 18:17:00,
2013-03-15 11:22:00,58.4,50.1,30.13,SW,221,2.0,3.0,74,0.00,,,0.00,WeatherCatV1.14B232,2013-03-15 18:22:00,
2013-03-15 11:27:00,58.5,49.9,30.13,West,264,2.0,2.0,73,0.00,,,0.00,WeatherCatV1.14B232,2013-03-15 18:27:00,
2013-03-15 11:32:00,58.7,49.3,30.13,WSW,248,2.0,3.0,71,0.00,,,0.00,WeatherCatV1.14B232,2013-03-15 18:32:00,
2013-03-15 11:37:00,58.6,49.2,30.13,West,260,2.0,3.0,71,0.00,,,0.00,WeatherCatV1.14B232,2013-03-15 18:37:00,
2013-03-15 11:42:00,58.6,50.3,30.13,WSW,255,1.0,3.0,74,0.00,,,0.00,WeatherCatV1.14B232,2013-03-15 18:42:00,
2013-03-15 11:47:00,58.5,50.2,30.12,SW,234,3.0,4.0,74,0.00,,,0.00,WeatherCatV1.14B232,2013-03-15 18:47:00,
2013-03-15 11:52:00,58.8,48.3,30.12,WSW,252,3.0,3.0,68,0.00,,,0.00,WeatherCatV1.14B232,2013-03-15 18:52:00,
2013-03-15 11:57:00,59.3,48.7,30.12,WSW,254,3.0,3.0,68,0.00,,,0.00,WeatherCatV1.14B232,2013-03-15 18:57:00,
2013-03-15 12:02:00,59.5,47.3,30.12,WSW,253,3.0,3.0,64,0.00,,,0.00,WeatherCatV1.14B232,2013-03-15 19:02:00,
2013-03-15 12:07:00,59.2,47.8,30.12,WSW,255,0.0,1.0,66,0.00,,,0.00,WeatherCatV1.14B232,2013-03-15 19:07:00,
2013-03-15 12:12:00,60.3,47.2,30.11,SW,236,0.0,0.0,62,0.00,,,0.00,WeatherCatV1.14B232,2013-03-15 19:12:00,
2013-03-15 12:17:00,60.8,46.4,30.11,SW,219,1.0,4.0,59,0.00,,,0.00,WeatherCatV1.14B232,2013-03-15 19:17:00,
2013-03-15 12:22:00,61.5,47.9,30.11,SW,226,1.0,2.0,61,0.00,,,0.00,WeatherCatV1.14B232,2013-03-15 19:22:00,
2013-03-15 12:27:00,62.3,48.7,30.11,West,259,1.0,2.0,61,0.00,,,0.00,WeatherCatV1.14B232,2013-03-15 19:27:00,
2013-03-15 12:32:00,63.0,48.4,30.11,WSW,240,0.0,0.0,59,0.00,,,0.00,WeatherCatV1.14B232,2013-03-15 19:32:00,
2013-03-15 12:37:00,63.6,47.6,30.11,SW,231,2.0,4.0,56,0.00,,,0.00,WeatherCatV1.14B232,2013-03-15 19:37:00,
2013-03-15 12:42:00,63.5,48.9,30.11,SW,231,1.0,1.0,59,0.00,,,0.00,WeatherCatV1.14B232,2013-03-15 19:42:00,
2013-03-15 12:47:00,64.3,52.3,30.10,West,260,1.0,1.0,65,0.00,,,0.00,WeatherCatV1.14B232,2013-03-15 19:47:00,
2013-03-15 12:52:00,64.3,48.3,30.10,WSW,254,1.0,4.0,56,0.00,,,0.00,WeatherCatV1.14B232,2013-03-15 19:52:00,
2013-03-15 12:57:00,62.8,47.3,30.10,WSW,250,3.0,6.0,57,0.00,,,0.00,WeatherCatV1.14B232,2013-03-15 19:57:00,
2013-03-15 13:03:00,62.4,47.9,30.10,West,262,4.0,4.0,59,0.00,,,0.00,WeatherCatV1.14B232,2013-03-15 20:03:00,
2013-03-15 13:08:00,62.1,46.7,30.10,SW,225,1.0,5.0,57,0.00,,,0.00,WeatherCatV1.14B232,2013-03-15 20:08:00,
2013-03-15 13:13:00,62.4,47.4,30.10,WSW,256,2.0,2.0,58,0.00,,,0.00,WeatherCatV1.14B232,2013-03-15 20:13:00,
2013-03-15 13:18:00,63.1,47.6,30.10,WSW,238,2.0,5.0,57,0.00,,,0.00,WeatherCatV1.14B232,2013-03-15 20:18:00,
2013-03-15 13:24:00,63.1,48.1,30.10,WSW,239,4.0,6.0,58,0.00,,,0.00,WeatherCatV1.14B232,2013-03-15 20:24:00,
2013-03-15 13:29:00,63.4,48.4,30.10,WSW,250,2.0,4.0,58,0.00,,,0.00,WeatherCatV1.14B232,2013-03-15 20:29:00,
2013-03-15 13:34:00,63.8,48.3,30.10,WSW,246,3.0,5.0,57,0.00,,,0.00,WeatherCatV1.14B232,2013-03-15 20:34:00,
2013-03-15 13:39:00,63.9,49.3,30.09,West,265,3.0,5.0,59,0.00,,,0.00,WeatherCatV1.14B232,2013-03-15 20:39:00,
2013-03-15 13:44:00,63.8,49.6,30.10,WSW,250,4.0,5.0,60,0.00,,,0.00,WeatherCatV1.14B232,2013-03-15 20:44:00,
2013-03-15 13:49:00,63.4,48.8,30.10,WSW,249,2.0,4.0,59,0.00,,,0.00,WeatherCatV1.14B232,2013-03-15 20:49:00,
2013-03-15 13:54:00,63.8,49.6,30.10,SW,214,4.0,7.0,60,0.00,,,0.00,WeatherCatV1.14B232,2013-03-15 20:54:00,
2013-03-15 13:59:00,63.8,50.1,30.09,WSW,252,4.0,6.0,61,0.00,,,0.00,WeatherCatV1.14B232,2013-03-15 20:59:00,
2013-03-15 14:04:00,63.9,50.2,30.09,WSW,256,4.0,5.0,61,0.00,,,0.00,WeatherCatV1.14B232,2013-03-15 21:04:00,
2013-03-15 14:09:00,64.2,51.3,30.09,West,264,4.0,7.0,63,0.00,,,0.00,WeatherCatV1.14B232,2013-03-15 21:09:00,
2013-03-15 14:14:00,64.2,50.9,30.09,WSW,256,5.0,6.0,62,0.00,,,0.00,WeatherCatV1.14B232,2013-03-15 21:14:00,
2013-03-15 14:19:00,64.4,51.5,30.09,SW,233,6.0,10.0,63,0.00,,,0.00,WeatherCatV1.14B232,2013-03-15 21:19:00,
2013-03-15 14:24:00,64.9,51.6,30.09,West,266,6.0,9.0,62,0.00,,,0.00,WeatherCatV1.14B232,2013-03-15 21:24:00,
2013-03-15 14:29:00,64.9,52.0,30.09,WSW,250,8.0,9.0,63,0.00,,,0.00,WeatherCatV1.14B232,2013-03-15 21:29:00,
2013-03-15 14:34:00,65.1,50.9,30.10,West,274,8.0,12.0,60,0.00,,,0.00,WeatherCatV1.14B232,2013-03-15 21:34:00,
2013-03-15 14:39:00,65.3,50.6,30.10,SW,236,11.0,13.0,59,0.00,,,0.00,WeatherCatV1.14B232,2013-03-15 21:39:00,
2013-03-15 14:44:00,65.2,49.6,30.09,West,276,13.0,14.0,57,0.00,,,0.00,WeatherCatV1.14B232,2013-03-15 21:44:00,
2013-03-15 14:49:00,64.7,48.6,30.09,WSW,253,13.0,13.0,56,0.00,,,0.00,WeatherCatV1.14B232,2013-03-15 21:49:00,
2013-03-15 14:54:00,64.6,48.5,30.09,WSW,250,9.0,12.0,56,0.00,,,0.00,WeatherCatV1.14B232,2013-03-15 21:54:00,
2013-03-15 14:59:00,64.9,48.8,30.09,West,267,6.0,12.0,56,0.00,,,0.00,WeatherCatV1.14B232,2013-03-15 21:59:00,
2013-03-15 15:04:00,65.3,48.2,30.09,WSW,256,8.0,10.0,54,0.00,,,0.00,WeatherCatV1.14B232,2013-03-15 22:04:00,
2013-03-15 15:09:00,65.1,49.0,30.08,West,271,9.0,9.0,56,0.00,,,0.00,WeatherCatV1.14B232,2013-03-15 22:09:00,
2013-03-15 15:14:00,65.2,49.1,30.08,West,271,5.0,8.0,56,0.00,,,0.00,WeatherCatV1.14B232,2013-03-15 22:14:00,
2013-03-15 15:19:00,65.6,50.4,30.08,West,269,5.0,8.0,58,0.00,,,0.00,WeatherCatV1.14B232,2013-03-15 22:19:00,
2013-03-15 15:24:00,65.6,51.3,30.07,SSW,211,2.0,2.0,60,0.00,,,0.00,WeatherCatV1.14B232,2013-03-15 22:24:00,
2013-03-15 15:29:00,67.2,52.4,30.07,SW,229,1.0,3.0,59,0.00,,,0.00,WeatherCatV1.14B232,2013-03-15 22:29:00,
2013-03-15 15:34:00,67.3,52.0,30.07,SW,225,4.0,4.0,58,0.00,,,0.00,WeatherCatV1.14B232,2013-03-15 22:34:00,
2013-03-15 15:39:00,67.5,51.7,30.07,West,260,5.0,5.0,57,0.00,,,0.00,WeatherCatV1.14B232,2013-03-15 22:39:00,
2013-03-15 15:44:00,67.4,52.1,30.07,West,267,1.0,3.0,58,0.00,,,0.00,WeatherCatV1.14B232,2013-03-15 22:44:00,
2013-03-15 15:49:00,67.6,51.3,30.07,WSW,257,2.0,4.0,56,0.00,,,0.00,WeatherCatV1.14B232,2013-03-15 22:49:00,
2013-03-15 15:54:00,68.0,52.2,30.07,WSW,255,2.0,2.0,57,0.00,,,0.00,WeatherCatV1.14B232,2013-03-15 22:54:00,
2013-03-15 15:59:00,68.8,52.5,30.07,West,262,1.0,3.0,56,0.00,,,0.00,WeatherCatV1.14B232,2013-03-15 22:59:00,
2013-03-15 16:04:00,69.5,53.1,30.06,WSW,253,2.0,2.0,56,0.00,,,0.00,WeatherCatV1.14B232,2013-03-15 23:04:00,
2013-03-15 16:09:00,69.2,52.8,30.06,WSW,238,0.0,1.0,56,0.00,,,0.00,WeatherCatV1.14B232,2013-03-15 23:09:00,
2013-03-15 16:14:00,69.4,54.0,30.06,NE,51,0.0,0.0,58,0.00,,,0.00,WeatherCatV1.14B232,2013-03-15 23:14:00,
2013-03-15 16:19:00,70.2,54.7,30.07,NE,47,0.0,0.0,58,0.00,,,0.00,WeatherCatV1.14B232,2013-03-15 23:19:00,
2013-03-15 16:24:00,70.5,54.0,30.07,WSW,243,0.0,0.0,56,0.00,,,0.00,WeatherCatV1.14B232,2013-03-15 23:24:00,
2013-03-15 16:29:00,70.1,54.6,30.07,SSW,208,0.0,0.0,58,0.00,,,0.00,WeatherCatV1.14B232,2013-03-15 23:29:00,
2013-03-15 16:34:00,69.0,53.6,30.07,SSW,196,0.0,3.0,58,0.00,,,0.00,WeatherCatV1.14B232,2013-03-15 23:34:00,
2013-03-15 16:39:00,67.7,53.8,30.07,WSW,254,0.0,1.0,61,0.00,,,0.00,WeatherCatV1.14B232,2013-03-15 23:39:00,
2013-03-15 16:44:00,67.3,52.9,30.07,East,101,0.0,2.0,60,0.00,,,0.00,WeatherCatV1.14B232,2013-03-15 23:44:00,
2013-03-15 16:49:00,67.5,53.6,30.07,East,99,0.0,0.0,61,0.00,,,0.00,WeatherCatV1.14B232,2013-03-15 23:49:00,
2013-03-15 16:54:00,68.1,53.7,30.07,SSW,201,0.0,0.0,60,0.00,,,0.00,WeatherCatV1.14B232,2013-03-15 23:54:00,
2013-03-15 16:59:00,68.2,53.8,30.07,NE,41,0.0,0.0,60,0.00,,,0.00,WeatherCatV1.14B232,2013-03-15 23:59:00,
2013-03-15 17:04:00,68.2,52.4,30.07,ESE,122,0.0,0.0,57,0.00,,,0.00,WeatherCatV1.14B232,2013-03-16 00:04:00,
2013-03-15 17:09:00,68.1,51.8,30.06,ENE,70,0.0,0.0,56,0.00,,,0.00,WeatherCatV1.14B232,2013-03-16 00:09:00,
2013-03-15 17:14:00,67.7,51.9,30.06,NE,42,0.0,0.0,57,0.00,,,0.00,WeatherCatV1.14B232,2013-03-16 00:14:00,
2013-03-15 17:19:00,67.3,52.9,30.06,NE,51,0.0,0.0,60,0.00,,,0.00,WeatherCatV1.14B232,2013-03-16 00:19:00,
2013-03-15 17:24:00,67.1,52.7,30.06,NE,49,0.0,0.0,60,0.00,,,0.00,WeatherCatV1.14B232,2013-03-16 00:24:00,
2013-03-15 17:29:00,66.7,52.8,30.06,NE,44,2.0,2.0,61,0.00,,,0.00,WeatherCatV1.14B232,2013-03-16 00:29:00,
2013-03-15 17:34:00,66.4,52.5,30.06,NE,41,1.0,1.0,61,0.00,,,0.00,WeatherCatV1.14B232,2013-03-16 00:34:00,
2013-03-15 17:39:00,66.2,52.8,30.06,NE,41,0.0,0.0,62,0.00,,,0.00,WeatherCatV1.14B232,2013-03-16 00:39:00,
2013-03-15 17:44:00,66.1,52.3,30.06,NE,41,0.0,0.0,61,0.00,,,0.00,WeatherCatV1.14B232,2013-03-16 00:44:00,
2013-03-15 17:49:00,65.7,52.3,30.06,NE,37,0.0,0.0,62,0.00,,,0.00,WeatherCatV1.14B232,2013-03-16 00:49:00,
2013-03-15 17:54:00,65.8,52.4,30.06,NE,37,0.0,0.0,62,0.00,,,0.00,WeatherCatV1.14B232,2013-03-16 00:54:00,
2013-03-15 17:59:00,66.1,54.0,30.06,SW,233,0.0,2.0,65,0.00,,,0.00,WeatherCatV1.14B232,2013-03-16 00:59:00,
2013-03-15 18:04:00,66.3,54.2,30.06,NNE,32,0.0,0.0,65,0.00,,,0.00,WeatherCatV1.14B232,2013-03-16 01:04:00,
2013-03-15 18:09:00,65.8,52.8,30.05,NNE,32,0.0,0.0,63,0.00,,,0.00,WeatherCatV1.14B232,2013-03-16 01:09:00,
2013-03-15 18:14:00,64.9,53.3,30.05,NNE,32,0.0,0.0,66,0.00,,,0.00,WeatherCatV1.14B232,2013-03-16 01:14:00,
2013-03-15 18:19:00,64.3,52.7,30.05,NNE,32,0.0,0.0,66,0.00,,,0.00,WeatherCatV1.14B232,2013-03-16 01:19:00,
2013-03-15 18:24:00,63.6,52.4,30.05,NE,39,1.0,2.0,67,0.00,,,0.00,WeatherCatV1.14B232,2013-03-16 01:24:00,
2013-03-15 18:29:00,63.0,51.9,30.05,NE,39,1.0,2.0,67,0.00,,,0.00,WeatherCatV1.14B232,2013-03-16 01:29:00,
2013-03-15 18:34:00,62.6,51.5,30.05,NE,40,1.0,2.0,67,0.00,,,0.00,WeatherCatV1.14B232,2013-03-16 01:34:00,
2013-03-15 18:39:00,62.5,51.8,30.05,NE,41,1.0,2.0,68,0.00,,,0.00,WeatherCatV1.14B232,2013-03-16 01:39:00,
2013-03-15 18:44:00,62.6,51.9,30.05,NE,39,1.0,1.0,68,0.00,,,0.00,WeatherCatV1.14B232,2013-03-16 01:44:00,
2013-03-15 18:49:00,62.5,51.8,30.05,NE,39,0.0,1.0,68,0.00,,,0.00,WeatherCatV1.14B232,2013-03-16 01:49:00,
2013-03-15 18:54:00,62.0,51.7,30.05,NE,40,0.0,0.0,69,0.00,,,0.00,WeatherCatV1.14B232,2013-03-16 01:54:00,
2013-03-15 18:59:00,61.3,51.8,30.05,SSE,155,0.0,1.0,71,0.00,,,0.00,WeatherCatV1.14B232,2013-03-16 01:59:00,
2013-03-15 19:04:00,60.1,51.4,30.05,West,267,2.0,3.0,73,0.00,,,0.00,WeatherCatV1.14B232,2013-03-16 02:04:00,
2013-03-15 19:09:00,58.7,50.4,30.05,ESE,105,0.0,2.0,74,0.00,,,0.00,WeatherCatV1.14B232,2013-03-16 02:09:00,
2013-03-15 19:14:00,58.0,50.1,30.05,ESE,106,0.0,0.0,75,0.00,,,0.00,WeatherCatV1.14B232,2013-03-16 02:14:00,
2013-03-15 19:19:00,57.5,50.0,30.05,WSW,252,0.0,3.0,76,0.00,,,0.00,WeatherCatV1.14B232,2013-03-16 02:19:00,
2013-03-15 19:24:00,57.0,49.9,30.05,SE,124,0.0,1.0,77,0.00,,,0.00,WeatherCatV1.14B232,2013-03-16 02:24:00,
2013-03-15 19:29:00,56.8,49.7,30.05,ESE,121,0.0,0.0,77,0.00,,,0.00,WeatherCatV1.14B232,2013-03-16 02:29:00,
2013-03-15 19:34:00,56.1,49.3,30.05,NW,312,2.0,4.0,78,0.00,,,0.00,WeatherCatV1.14B232,2013-03-16 02:34:00,
2013-03-15 19:39:00,55.0,48.9,30.05,SW,215,0.0,1.0,80,0.00,,,0.00,WeatherCatV1.14B232,2013-03-16 02:39:00,
2013-03-15 19:44:00,54.7,49.0,30.04,SW,231,1.0,1.0,81,0.00,,,0.00,WeatherCatV1.14B232,2013-03-16 02:44:00,
2013-03-15 19:49:00,54.7,49.0,30.05,SSE,162,0.0,1.0,81,0.00,,,0.00,WeatherCatV1.14B232,2013-03-16 02:49:00,
2013-03-15 19:54:00,54.8,49.1,30.05,NNE,28,1.0,1.0,81,0.00,,,0.00,WeatherCatV1.14B232,2013-03-16 02:54:00,
2013-03-15 19:59:00,55.0,48.9,30.05,SSE,163,0.0,2.0,80,0.00,,,0.00,WeatherCatV1.14B232,2013-03-16 02:59:00,
2013-03-15 20:04:00,54.8,49.1,30.05,ESE,120,0.0,0.0,81,0.00,,,0.00,WeatherCatV1.14B232,2013-03-16 03:04:00,
2013-03-15 20:09:00,54.6,48.9,30.05,East,100,0.0,0.0,81,0.00,,,0.00,WeatherCatV1.14B232,2013-03-16 03:09:00,
2013-03-15 20:14:00,54.1,48.4,30.04,ENE,60,1.0,2.0,81,0.00,,,0.00,WeatherCatV1.14B232,2013-03-16 03:14:00,
2013-03-15 20:19:00,54.0,48.6,30.04,ENE,65,0.0,1.0,82,0.00,,,0.00,WeatherCatV1.14B232,2013-03-16 03:19:00,
2013-03-15 20:24:00,55.0,49.6,30.05,ENE,65,0.0,0.0,82,0.00,,,0.00,WeatherCatV1.14B232,2013-03-16 03:24:00,
2013-03-15 20:29:00,55.6,49.2,30.05,ENE,65,0.0,0.0,79,0.00,,,0.00,WeatherCatV1.14B232,2013-03-16 03:29:00,
2013-03-15 20:34:00,56.3,49.5,30.05,WSW,248,2.0,2.0,78,0.00,,,0.00,WeatherCatV1.14B232,2013-03-16 03:34:00,
2013-03-15 20:39:00,55.7,48.9,30.05,WSW,239,2.0,2.0,78,0.00,,,0.00,WeatherCatV1.14B232,2013-03-16 03:39:00,
2013-03-15 20:44:00,54.7,48.7,30.05,SSW,194,1.0,1.0,80,0.00,,,0.00,WeatherCatV1.14B232,2013-03-16 03:44:00,
2013-03-15 20:49:00,54.2,48.8,30.05,SW,217,1.0,2.0,82,0.00,,,0.00,WeatherCatV1.14B232,2013-03-16 03:49:00,
2013-03-15 20:54:00,54.1,48.7,30.06,WSW,253,1.0,2.0,82,0.00,,,0.00,WeatherCatV1.14B232,2013-03-16 03:54:00,
2013-03-15 20:59:00,54.3,48.9,30.06,SW,215,1.0,2.0,82,0.00,,,0.00,WeatherCatV1.14B232,2013-03-16 03:59:00,
2013-03-15 21:00:00,54.4,49.0,30.06,SW,214,0.0,1.0,82,0.00,,,0.00,WeatherCatV1.14B232,2013-03-16 04:00:00,
2013-03-15 21:01:00,54.5,49.1,30.06,SW,214,0.0,1.0,82,0.00,,,0.00,WeatherCatV1.14B232,2013-03-16 04:01:00,
2013-03-15 21:06:00,54.8,49.1,30.05,SW,231,1.0,2.0,81,0.00,,,0.00,WeatherCatV1.14B232,2013-03-16 04:06:00,
2013-03-15 21:11:00,55.1,49.4,30.06,WSW,250,2.0,2.0,81,0.00,,,0.00,WeatherCatV1.14B232,2013-03-16 04:11:00,
2013-03-15 21:16:00,55.1,49.4,30.06,WSW,240,1.0,3.0,81,0.00,,,0.00,WeatherCatV1.14B232,2013-03-16 04:16:00,
2013-03-15 21:21:00,55.0,49.3,30.06,West,259,2.0,2.0,81,0.00,,,0.00,WeatherCatV1.14B232,2013-03-16 04:21:00,
2013-03-15 21:26:00,54.6,48.9,30.07,WSW,256,3.0,4.0,81,0.00,,,0.00,WeatherCatV1.14B232,2013-03-16 04:26:00,
2013-03-15 21:31:00,54.1,48.7,30.07,WSW,246,0.0,0.0,82,0.00,,,0.00,WeatherCatV1.14B232,2013-03-16 04:31:00,
2013-03-15 21:36:00,53.9,48.5,30.07,WSW,246,0.0,0.0,82,0.00,,,0.00,WeatherCatV1.14B232,2013-03-16 04:36:00,
2013-03-15 21:41:00,54.2,48.8,30.07,WSW,252,0.0,1.0,82,0.00,,,0.00,WeatherCatV1.14B232,2013-03-16 04:41:00,
2013-03-15 21:46:00,54.5,48.8,30.07,WSW,252,0.0,0.0,81,0.00,,,0.00,WeatherCatV1.14B232,2013-03-16 04:46:00,
2013-03-15 21:51:00,54.5,48.8,30.07,WSW,252,0.0,0.0,81,0.00,,,0.00,WeatherCatV1.14B232,2013-03-16 04:51:00,
2013-03-15 21:56:00,54.6,48.9,30.07,WSW,252,0.0,0.0,81,0.00,,,0.00,WeatherCatV1.14B232,2013-03-16 04:56:00,
2013-03-15 22:01:00,54.8,49.1,30.07,WSW,252,0.0,0.0,81,0.00,,,0.00,WeatherCatV1.14B232,2013-03-16 05:01:00,
2013-03-15 22:06:00,55.0,48.9,30.07,WSW,252,0.0,0.0,80,0.00,,,0.00,WeatherCatV1.14B232,2013-03-16 05:06:00,
2013-03-15 22:11:00,55.3,48.9,30.07,WSW,252,0.0,0.0,79,0.00,,,0.00,WeatherCatV1.14B232,2013-03-16 05:11:00,
2013-03-15 22:16:00,55.5,49.1,30.07,WSW,252,0.0,0.0,79,0.00,,,0.00,WeatherCatV1.14B232,2013-03-16 05:16:00,
2013-03-15 22:21:00,55.4,49.0,30.07,WSW,252,0.0,0.0,79,0.00,,,0.00,WeatherCatV1.14B232,2013-03-16 05:21:00,
2013-03-15 22:26:00,55.1,48.7,30.07,WSW,252,0.0,0.0,79,0.00,,,0.00,WeatherCatV1.14B232,2013-03-16 05:26:00,
2013-03-15 22:31:00,54.7,48.7,30.07,WSW,252,0.0,0.0,80,0.00,,,0.00,WeatherCatV1.14B232,2013-03-16 05:31:00,
2013-03-15 22:36:00,54.5,48.8,30.07,North,8,0.0,0.0,81,0.00,,,0.00,WeatherCatV1.14B232,2013-03-16 05:36:00,
2013-03-15 22:41:00,54.3,48.6,30.07,NE,34,0.0,0.0,81,0.00,,,0.00,WeatherCatV1.14B232,2013-03-16 05:41:00,
2013-03-15 22:46:00,54.2,48.8,30.07,NE,40,0.0,0.0,82,0.00,,,0.00,WeatherCatV1.14B232,2013-03-16 05:46:00,
2013-03-15 22:51:00,54.2,48.8,30.07,NE,40,0.0,0.0,82,0.00,,,0.00,WeatherCatV1.14B232,2013-03-16 05:51:00,
2013-03-15 22:56:00,54.3,48.9,30.07,NE,40,0.0,0.0,82,0.00,,,0.00,WeatherCatV1.14B232,2013-03-16 05:56:00,
2013-03-15 23:02:00,54.3,48.9,30.07,NE,39,0.0,1.0,82,0.00,,,0.00,WeatherCatV1.14B232,2013-03-16 06:02:00,
2013-03-15 23:07:00,54.1,48.7,30.07,NE,41,0.0,0.0,82,0.00,,,0.00,WeatherCatV1.14B232,2013-03-16 06:07:00,
2013-03-15 23:12:00,53.8,48.4,30.07,NE,40,0.0,0.0,82,0.00,,,0.00,WeatherCatV1.14B232,2013-03-16 06:12:00,
2013-03-15 23:17:00,53.4,48.0,30.07,NE,40,0.0,0.0,82,0.00,,,0.00,WeatherCatV1.14B232,2013-03-16 06:17:00,
2013-03-15 23:22:00,53.1,48.1,30.07,NE,40,0.0,0.0,83,0.00,,,0.00,WeatherCatV1.14B232,2013-03-16 06:22:00,
2013-03-15 23:27:00,52.9,47.9,30.08,NE,34,0.0,0.0,83,0.00,,,0.00,WeatherCatV1.14B232,2013-03-16 06:27:00,
2013-03-15 23:32:00,52.8,47.8,30.07,NE,34,0.0,0.0,83,0.00,,,0.00,WeatherCatV1.14B232,2013-03-16 06:32:00,
2013-03-15 23:37:00,52.7,47.7,30.08,NE,34,0.0,0.0,83,0.00,,,0.00,WeatherCatV1.14B232,2013-03-16 06:37:00,
2013-03-15 23:42:00,52.6,47.9,30.08,NE,34,0.0,0.0,84,0.00,,,0.00,WeatherCatV1.14B232,2013-03-16 06:42:00,
2013-03-15 23:47:00,52.7,48.0,30.08,NE,34,0.0,0.0,84,0.00,,,0.00,WeatherCatV1.14B232,2013-03-16 06:47:00,
2013-03-15 23:52:00,52.7,48.0,30.08,NE,34,0.0,0.0,84,0.00,,,0.00,WeatherCatV1.14B232,2013-03-16 06:52:00,
2013-03-15 23:57:00,52.6,47.9,30.07,NE,39,0.0,0.0,84,0.00,,,0.00,WeatherCatV1.14B232,2013-03-16 06:57:00,